createdAt,value
2023-03-05T00:01:37.148Z,3.08
2023-03-05T00:04:06.609Z,2.58
2023-03-05T00:06:38.231Z,2.22
2023-03-05T00:09:06.766Z,2.60
2023-03-05T00:11:40.279Z,2.30
2023-03-05T00:14:08.801Z,2.15
2023-03-05T00:16:37.761Z,2.38
2023-03-05T00:19:06.714Z,2.92
2023-03-05T00:21:37.322Z,2.38
2023-03-05T00:24:08.091Z,3.00
2023-03-05T00:26:38.087Z,3.65
2023-03-05T00:29:07.463Z,4.03
2023-03-05T00:31:41.784Z,7.25
2023-03-05T00:34:12.811Z,6.13
2023-03-05T00:36:42.790Z,7.90
2023-03-05T00:39:12.305Z,7.47
2023-03-05T00:41:41.301Z,7.85
2023-03-05T00:44:10.334Z,10.18
2023-03-05T00:46:39.257Z,7.00
2023-03-05T00:49:09.284Z,8.23
2023-03-05T00:51:40.710Z,9.15
2023-03-05T00:54:09.326Z,9.18
2023-03-05T00:56:47.305Z,4.57
2023-03-05T00:59:27.472Z,3.40
2023-03-05T01:01:56.378Z,4.68
2023-03-05T01:04:27.872Z,4.15
2023-03-05T01:06:56.748Z,3.65
2023-03-05T01:09:26.872Z,3.47
2023-03-05T01:11:56.228Z,3.33
2023-03-05T01:14:25.746Z,3.28
2023-03-05T01:16:54.860Z,3.20
2023-03-05T01:19:23.614Z,3.00
2023-03-05T01:21:52.436Z,3.15
2023-03-05T01:24:21.360Z,3.53
2023-03-05T01:26:50.153Z,4.45
2023-03-05T01:29:19.082Z,4.38
2023-03-05T01:31:47.938Z,3.95
2023-03-05T01:34:16.663Z,3.25
2023-03-05T01:36:50.574Z,2.88
2023-03-05T01:39:19.463Z,2.92
2023-03-05T01:41:47.903Z,3.35
2023-03-05T01:44:25.543Z,3.90
2023-03-05T01:46:54.380Z,4.22
2023-03-05T01:49:26.728Z,5.05
2023-03-05T01:52:11.217Z,5.93
2023-03-05T01:54:51.745Z,5.95
2023-03-05T01:57:35.938Z,5.60
2023-03-05T02:00:17.656Z,5.10
2023-03-05T02:02:48.647Z,4.10
2023-03-05T02:05:27.668Z,3.75
2023-03-05T02:08:07.989Z,4.38
2023-03-05T02:10:43.311Z,4.30
2023-03-05T02:13:15.194Z,4.35
2023-03-05T02:15:45.229Z,5.28
2023-03-05T02:18:17.091Z,5.68
2023-03-05T02:20:56.990Z,4.13
2023-03-05T02:23:29.090Z,4.22
2023-03-05T02:25:57.732Z,5.03
2023-03-05T02:28:35.779Z,5.80
2023-03-05T02:31:13.740Z,6.15
2023-03-05T02:33:43.292Z,7.28
2023-03-05T02:36:12.981Z,6.07
2023-03-05T02:38:41.473Z,5.03
2023-03-05T02:41:10.377Z,5.03
2023-03-05T02:43:38.927Z,4.60
2023-03-05T02:46:08.351Z,5.88
2023-03-05T02:48:36.603Z,6.63
2023-03-05T02:51:05.268Z,6.85
2023-03-05T02:53:33.705Z,7.15
2023-03-05T02:56:02.021Z,6.22
2023-03-05T02:58:34.308Z,6.60
2023-03-05T03:01:02.757Z,6.95
2023-03-05T03:03:31.766Z,7.10
2023-03-05T03:06:01.219Z,6.65
2023-03-05T03:08:29.454Z,6.47
2023-03-05T03:11:09.946Z,7.00
2023-03-05T03:13:39.289Z,7.22
2023-03-05T03:16:10.106Z,5.53
2023-03-05T03:18:38.356Z,6.97
2023-03-05T03:21:06.766Z,12.70
2023-03-05T03:23:34.974Z,12.85
2023-03-05T03:26:02.929Z,7.63
2023-03-05T03:28:31.232Z,5.97
2023-03-05T03:30:59.325Z,4.93
2023-03-05T03:33:28.156Z,5.18
2023-03-05T03:36:00.591Z,4.20
2023-03-05T03:38:29.802Z,4.20
2023-03-05T03:40:58.209Z,4.10
2023-03-05T03:43:26.757Z,5.03
2023-03-05T03:45:54.877Z,5.97
2023-03-05T03:48:22.844Z,4.90
2023-03-05T03:50:50.984Z,4.28
2023-03-05T03:53:18.931Z,4.88
2023-03-05T03:55:49.581Z,4.28
2023-03-05T03:58:17.642Z,3.80
2023-03-05T04:00:45.971Z,3.33
2023-03-05T04:03:14.057Z,4.03
2023-03-05T04:05:42.420Z,4.20
2023-03-05T04:08:12.589Z,5.15
2023-03-05T04:10:40.644Z,4.88
2023-03-05T04:13:09.232Z,4.65
2023-03-05T04:15:37.608Z,3.67
2023-03-05T04:18:05.580Z,6.00
2023-03-05T04:20:34.195Z,4.57
2023-03-05T04:23:02.199Z,4.45
2023-03-05T04:25:30.368Z,3.70
2023-03-05T04:27:58.947Z,3.88
2023-03-05T04:30:27.123Z,5.40
2023-03-05T04:32:55.380Z,5.30
2023-03-05T04:35:23.315Z,3.95
2023-03-05T04:37:51.746Z,3.80
2023-03-05T04:40:21.103Z,3.58
2023-03-05T04:42:49.676Z,5.63
2023-03-05T04:45:17.854Z,8.13
2023-03-05T04:47:46.377Z,6.35
2023-03-05T04:50:14.433Z,4.60
2023-03-05T04:52:43.059Z,6.60
2023-03-05T04:55:12.488Z,7.13
2023-03-05T04:57:40.839Z,7.75
2023-03-05T05:00:17.394Z,6.22
2023-03-05T05:02:47.068Z,6.20
2023-03-05T05:05:16.909Z,7.00
2023-03-05T05:07:45.531Z,6.03
2023-03-05T05:10:13.908Z,5.43
2023-03-05T05:12:42.604Z,4.07
2023-03-05T05:15:12.551Z,3.40
2023-03-05T05:17:40.652Z,5.20
2023-03-05T05:20:11.700Z,3.20
2023-03-05T05:22:40.215Z,3.05
2023-03-05T05:25:08.810Z,3.50
2023-03-05T05:27:37.426Z,3.30
2023-03-05T05:30:06.350Z,3.67
2023-03-05T05:32:34.463Z,3.20
2023-03-05T05:35:02.777Z,4.13
2023-03-05T05:37:31.329Z,4.00
2023-03-05T05:40:00.021Z,4.38
2023-03-05T05:42:29.946Z,4.88
2023-03-05T05:44:58.625Z,5.88
2023-03-05T05:47:28.115Z,5.30
2023-03-05T05:49:56.954Z,6.50
2023-03-05T05:52:25.522Z,4.40
2023-03-05T05:54:53.828Z,4.82
2023-03-05T05:57:22.651Z,6.35
2023-03-05T05:59:51.739Z,5.40
2023-03-05T06:02:20.088Z,4.97
2023-03-05T06:04:52.348Z,4.45
2023-03-05T06:07:20.557Z,3.83
2023-03-05T06:09:49.205Z,6.68
2023-03-05T06:12:18.018Z,4.22
2023-03-05T06:14:46.239Z,4.03
2023-03-05T06:17:29.835Z,4.72
2023-03-05T06:19:58.881Z,4.47
2023-03-05T06:22:26.745Z,4.05
2023-03-05T06:24:54.557Z,3.72
2023-03-05T06:27:22.606Z,4.10
2023-03-05T06:29:53.498Z,3.50
2023-03-05T06:32:21.646Z,3.85
2023-03-05T06:34:50.316Z,4.75
2023-03-05T06:37:18.350Z,9.02
2023-03-05T06:39:45.942Z,6.57
2023-03-05T06:42:14.305Z,5.93
2023-03-05T06:44:42.832Z,9.68
2023-03-05T06:47:10.925Z,9.27
2023-03-05T06:49:39.345Z,5.38
2023-03-05T06:52:10.042Z,5.78
2023-03-05T06:54:37.551Z,4.50
2023-03-05T06:57:05.076Z,7.82
2023-03-05T06:59:33.142Z,6.88
2023-03-05T07:02:00.694Z,10.10
2023-03-05T07:04:28.692Z,10.02
2023-03-05T07:06:57.138Z,9.25
2023-03-05T07:09:25.069Z,8.68
2023-03-05T07:11:53.103Z,10.25
2023-03-05T07:14:21.027Z,9.43
2023-03-05T07:16:48.443Z,10.45
2023-03-05T07:19:16.537Z,7.57
2023-03-05T07:21:44.340Z,6.85
2023-03-05T07:24:11.933Z,7.53
2023-03-05T07:26:40.044Z,7.22
2023-03-05T07:29:07.567Z,5.88
2023-03-05T07:31:34.973Z,5.75
2023-03-05T07:34:03.157Z,5.75
2023-03-05T07:36:31.128Z,5.80
2023-03-05T07:38:58.984Z,4.47
2023-03-05T07:41:26.932Z,5.00
2023-03-05T07:43:54.794Z,5.28
2023-03-05T07:46:25.214Z,5.88
2023-03-05T07:48:54.606Z,5.38
2023-03-05T07:51:22.987Z,6.20
2023-03-05T07:53:51.007Z,7.28
2023-03-05T07:56:25.504Z,6.57
2023-03-05T07:58:53.480Z,7.07
2023-03-05T08:01:21.610Z,5.53
2023-03-05T08:03:49.758Z,5.15
2023-03-05T08:06:17.202Z,9.45
2023-03-05T08:08:45.223Z,4.93
2023-03-05T08:11:14.414Z,4.68
2023-03-05T08:13:43.030Z,6.65
2023-03-05T08:16:15.499Z,9.18
2023-03-05T08:18:43.564Z,5.25
2023-03-05T08:21:22.709Z,5.63
2023-03-05T08:23:50.647Z,4.97
2023-03-05T08:26:20.731Z,4.15
2023-03-05T08:28:48.737Z,4.25
2023-03-05T08:31:16.965Z,3.40
2023-03-05T08:33:44.518Z,4.38
2023-03-05T08:36:13.211Z,3.85
2023-03-05T08:38:41.945Z,3.70
2023-03-05T08:41:09.634Z,3.80
2023-03-05T08:43:37.592Z,5.38
2023-03-05T08:46:05.912Z,5.18
2023-03-05T08:48:34.388Z,5.50
2023-03-05T08:51:07.334Z,5.00
2023-03-05T08:53:35.456Z,3.97
2023-03-05T08:56:03.594Z,4.47
2023-03-05T08:58:31.515Z,4.70
2023-03-05T09:00:59.182Z,3.40
2023-03-05T09:03:26.932Z,4.72
2023-03-05T09:05:54.796Z,4.60
2023-03-05T09:08:22.615Z,4.70
2023-03-05T09:10:50.336Z,5.53
2023-03-05T09:13:17.967Z,3.90
2023-03-05T09:15:45.826Z,4.25
2023-03-05T09:18:13.951Z,4.72
2023-03-05T09:20:42.269Z,3.72
2023-03-05T09:23:10.457Z,2.75
2023-03-05T09:25:41.401Z,2.90
2023-03-05T09:28:09.283Z,3.97
2023-03-05T09:30:37.177Z,5.80
2023-03-05T09:33:05.167Z,5.60
2023-03-05T09:35:35.739Z,6.72
2023-03-05T09:38:04.123Z,4.82
2023-03-05T09:40:51.495Z,4.10
2023-03-05T09:43:35.426Z,3.03
2023-03-05T09:46:06.879Z,3.10
2023-03-05T09:48:47.651Z,4.93
2023-03-05T09:51:24.537Z,4.75
2023-03-05T09:54:03.245Z,5.55
2023-03-05T09:56:40.154Z,4.82
2023-03-05T09:59:40.700Z,2.35
2023-03-05T10:02:32.188Z,3.20
2023-03-05T10:05:20.498Z,4.75
2023-03-05T10:07:55.227Z,4.50
2023-03-05T10:10:37.150Z,3.42
2023-03-05T10:13:11.843Z,3.55
2023-03-05T10:15:52.211Z,4.03
2023-03-05T10:18:52.589Z,4.25
2023-03-05T10:21:32.454Z,10.35
2023-03-05T10:24:14.842Z,12.98
2023-03-05T10:27:20.599Z,5.53
2023-03-05T10:29:57.858Z,5.10
2023-03-05T10:32:47.003Z,4.40
2023-03-05T10:35:14.962Z,3.95
2023-03-05T10:38:01.003Z,4.47
2023-03-05T10:40:42.590Z,4.68
2023-03-05T10:43:31.833Z,5.72
2023-03-05T10:45:59.552Z,5.25
2023-03-05T10:48:39.751Z,5.00
2023-03-05T10:51:23.359Z,4.78
2023-03-05T10:53:58.353Z,4.70
2023-03-05T10:56:27.440Z,6.32
2023-03-05T10:58:54.895Z,4.70
2023-03-05T11:01:28.250Z,3.63
2023-03-05T11:04:00.047Z,5.75
2023-03-05T11:06:35.566Z,5.53
2023-03-05T11:09:24.140Z,5.90
2023-03-05T11:12:05.946Z,8.98
2023-03-05T11:14:34.030Z,12.98
2023-03-05T11:17:02.670Z,6.10
2023-03-05T11:19:33.151Z,5.88
2023-03-05T11:22:20.958Z,7.78
2023-03-05T11:25:15.494Z,11.27
2023-03-05T11:27:51.034Z,9.77
2023-03-05T11:30:27.188Z,21.05
2023-03-05T11:33:15.695Z,10.90
2023-03-05T11:35:44.324Z,13.80
2023-03-05T11:38:24.628Z,14.15
2023-03-05T11:40:54.238Z,14.13
2023-03-05T11:43:23.608Z,14.35
2023-03-05T11:46:02.770Z,15.38
2023-03-05T11:48:36.227Z,15.95
2023-03-05T11:51:34.374Z,14.23
2023-03-05T11:54:06.772Z,20.20
2023-03-05T11:56:37.239Z,21.58
2023-03-05T11:59:18.360Z,20.65
2023-03-05T12:01:53.684Z,19.58
2023-03-05T12:04:21.208Z,15.93
2023-03-05T12:06:57.558Z,17.33
2023-03-05T12:09:40.925Z,19.83
2023-03-05T12:12:32.226Z,14.40
2023-03-05T12:15:12.086Z,18.48
2023-03-05T12:17:46.493Z,20.70
2023-03-05T12:20:38.873Z,27.50
2023-03-05T12:23:06.712Z,21.58
2023-03-05T12:25:45.612Z,24.00
2023-03-05T12:28:16.346Z,24.17
2023-03-05T12:30:43.958Z,27.08
2023-03-05T12:33:30.060Z,31.52
2023-03-05T12:36:22.545Z,32.38
2023-03-05T12:38:56.785Z,34.95
2023-03-05T12:41:25.904Z,35.35
2023-03-05T12:44:07.486Z,33.95
2023-03-05T12:46:45.379Z,36.28
2023-03-05T12:49:23.758Z,31.02
2023-03-05T12:51:55.477Z,34.00
2023-03-05T12:54:28.020Z,47.75
2023-03-05T12:56:57.196Z,37.10
2023-03-05T12:59:30.628Z,35.47
2023-03-05T13:02:00.951Z,28.92
2023-03-05T13:04:30.742Z,27.25
2023-03-05T13:07:02.319Z,28.55
2023-03-05T13:09:33.528Z,26.42
2023-03-05T13:12:01.175Z,26.05
2023-03-05T13:14:41.409Z,22.48
2023-03-05T13:17:38.197Z,22.52
2023-03-05T13:20:27.962Z,18.58
2023-03-05T13:23:18.384Z,16.42
2023-03-05T13:25:55.853Z,15.00
2023-03-05T13:28:24.077Z,14.65
2023-03-05T13:30:59.032Z,13.77
2023-03-05T13:33:32.080Z,13.35
2023-03-05T13:38:40.723Z,22.30
2023-03-05T13:41:11.608Z,18.95
2023-03-05T13:43:44.003Z,16.70
2023-03-05T13:46:11.468Z,18.58
2023-03-05T13:48:39.439Z,17.13
2023-03-05T13:51:09.080Z,20.73
2023-03-05T13:53:36.939Z,13.15
2023-03-05T13:56:06.861Z,16.65
2023-03-05T13:58:52.187Z,29.33
2023-03-05T14:01:40.783Z,24.67
2023-03-05T14:04:14.489Z,30.40
2023-03-05T14:07:06.106Z,10.18
2023-03-05T14:09:40.090Z,10.30
2023-03-05T14:12:30.534Z,16.02
2023-03-05T14:14:59.847Z,20.77
2023-03-05T14:17:27.569Z,32.80
2023-03-05T14:20:13.282Z,31.58
2023-03-05T14:22:42.891Z,37.30
2023-03-05T14:25:39.958Z,28.67
2023-03-05T14:28:19.881Z,34.40
2023-03-05T14:30:48.523Z,32.28
2023-03-05T14:33:28.652Z,37.78
2023-03-05T14:35:57.510Z,34.47
2023-03-05T14:38:27.753Z,31.80
2023-03-05T14:40:56.410Z,15.48
2023-03-05T14:43:24.207Z,27.10
2023-03-05T14:45:52.035Z,20.98
2023-03-05T14:48:19.840Z,24.40
2023-03-05T14:50:51.495Z,35.95
2023-03-05T14:53:23.818Z,36.25
2023-03-05T14:55:58.289Z,35.40
2023-03-05T14:58:28.404Z,36.75
2023-03-05T15:00:56.996Z,35.28
2023-03-05T15:03:24.577Z,30.77
2023-03-05T15:05:53.415Z,35.83
2023-03-05T15:08:23.019Z,31.25
2023-03-05T15:10:50.994Z,33.65
2023-03-05T15:13:18.864Z,29.08
2023-03-05T15:15:46.773Z,18.45
2023-03-05T15:18:15.950Z,28.65
2023-03-05T15:20:43.819Z,23.02
2023-03-05T15:23:12.847Z,20.77
2023-03-05T15:25:40.589Z,21.13
2023-03-05T15:28:09.484Z,21.48
2023-03-05T15:30:41.316Z,21.30
2023-03-05T15:33:10.826Z,19.60
2023-03-05T15:35:39.131Z,25.40
2023-03-05T15:38:06.670Z,24.58
2023-03-05T15:40:34.488Z,25.80
2023-03-05T15:43:02.092Z,25.83
2023-03-05T15:45:31.603Z,26.38
2023-03-05T15:47:59.842Z,24.73
2023-03-05T15:50:27.222Z,21.48
2023-03-05T15:52:55.082Z,21.98
2023-03-05T15:55:22.500Z,20.05
2023-03-05T15:57:51.177Z,21.40
2023-03-05T16:00:27.186Z,20.00
2023-03-05T16:02:54.658Z,12.93
2023-03-05T16:05:22.420Z,10.45
2023-03-05T16:07:51.316Z,8.45
2023-03-05T16:10:21.493Z,8.77
2023-03-05T16:12:50.204Z,10.18
2023-03-05T16:15:18.718Z,13.73
2023-03-05T16:17:47.776Z,13.88
2023-03-05T16:20:15.478Z,13.82
2023-03-05T16:22:43.471Z,20.00
2023-03-05T16:25:11.044Z,19.92
2023-03-05T16:27:38.703Z,23.05
2023-03-05T16:30:07.313Z,19.63
2023-03-05T16:32:34.939Z,20.63
2023-03-05T16:35:02.672Z,17.60
2023-03-05T16:37:30.037Z,25.38
2023-03-05T16:40:00.976Z,35.22
2023-03-05T16:42:28.636Z,32.78
2023-03-05T16:44:56.617Z,43.35
2023-03-05T16:47:24.133Z,45.30
2023-03-05T16:49:51.517Z,47.97
2023-03-05T16:52:20.831Z,55.67
2023-03-05T16:54:48.399Z,61.95
2023-03-05T16:57:16.147Z,46.42
2023-03-05T16:59:43.858Z,45.00
2023-03-05T17:02:12.980Z,43.72
2023-03-05T17:04:40.783Z,42.53
2023-03-05T17:07:08.503Z,34.92
2023-03-05T17:09:36.226Z,37.28
2023-03-05T17:12:05.149Z,39.30
2023-03-05T17:14:32.740Z,41.42
2023-03-05T17:17:01.061Z,40.58
2023-03-05T17:19:28.652Z,37.47
2023-03-05T17:21:55.897Z,36.03
2023-03-05T17:24:23.484Z,34.65
2023-03-05T17:26:51.132Z,39.33
2023-03-05T17:29:19.366Z,40.08
2023-03-05T17:31:46.897Z,34.25
2023-03-05T17:34:15.710Z,29.60
2023-03-05T17:36:45.296Z,26.95
2023-03-05T17:39:13.587Z,28.17
2023-03-05T17:41:41.347Z,28.42
2023-03-05T17:44:09.065Z,31.92
2023-03-05T17:46:36.699Z,29.17
2023-03-05T17:49:04.051Z,22.90
2023-03-05T17:51:31.366Z,18.27
2023-03-05T17:53:59.451Z,15.18
2023-03-05T17:56:26.981Z,12.57
2023-03-05T17:58:54.592Z,12.32
2023-03-05T18:01:23.844Z,12.32
2023-03-05T18:03:51.508Z,12.60
2023-03-05T18:06:19.130Z,12.15
2023-03-05T18:08:46.909Z,12.18
2023-03-05T18:11:14.473Z,13.15
2023-03-05T18:13:43.093Z,13.10
2023-03-05T18:16:10.881Z,13.00
2023-03-05T18:18:38.289Z,14.93
2023-03-05T18:21:05.952Z,21.80
2023-03-05T18:23:33.506Z,30.77
2023-03-05T18:26:00.860Z,32.45
2023-03-05T18:28:28.873Z,35.08
2023-03-05T18:30:56.254Z,36.20
2023-03-05T18:33:24.797Z,33.08
2023-03-05T18:35:52.849Z,27.92
2023-03-05T18:38:25.226Z,24.35
2023-03-05T18:40:53.154Z,24.55
2023-03-05T18:43:21.142Z,22.15
2023-03-05T18:45:49.491Z,19.35
2023-03-05T18:48:17.576Z,20.42
2023-03-05T18:50:45.218Z,22.55
2023-03-05T18:53:13.588Z,23.35
2023-03-05T18:55:45.088Z,24.50
2023-03-05T18:58:15.509Z,25.83
2023-03-05T19:00:44.939Z,29.80
2023-03-05T19:03:12.671Z,31.92
2023-03-05T19:05:40.674Z,28.95
2023-03-05T19:08:08.316Z,29.75
2023-03-05T19:10:35.788Z,24.70
2023-03-05T19:13:39.247Z,25.40
2023-03-05T19:16:14.645Z,20.92
2023-03-05T19:18:57.013Z,23.23
2023-03-05T19:21:24.678Z,22.83
2023-03-05T19:23:51.924Z,17.38
2023-03-05T19:26:19.080Z,14.30
2023-03-05T19:28:46.587Z,12.02
2023-03-05T19:31:17.694Z,12.80
2023-03-05T19:33:45.017Z,10.35
2023-03-05T19:36:12.468Z,10.25
2023-03-05T19:38:40.362Z,10.52
2023-03-05T19:41:08.653Z,14.07
2023-03-05T19:43:36.169Z,16.27
2023-03-05T19:46:04.722Z,19.20
2023-03-05T19:48:32.495Z,20.52
2023-03-05T19:51:00.679Z,22.17
2023-03-05T19:53:28.149Z,24.40
2023-03-05T19:55:56.398Z,27.77
2023-03-05T19:58:23.994Z,26.85
2023-03-05T20:00:51.770Z,25.17
2023-03-05T20:03:18.965Z,22.88
2023-03-05T20:05:46.474Z,23.17
2023-03-05T20:08:13.865Z,22.10
2023-03-05T20:10:41.077Z,16.83
2023-03-05T20:13:08.650Z,16.58
2023-03-05T20:15:36.118Z,10.70
2023-03-05T20:18:03.852Z,7.07
2023-03-05T20:20:31.491Z,6.00
2023-03-05T20:22:58.875Z,6.43
2023-03-05T20:25:26.292Z,6.15
2023-03-05T20:27:53.862Z,5.30
2023-03-05T20:30:21.588Z,5.55
2023-03-05T20:32:49.274Z,5.47
2023-03-05T20:35:17.677Z,5.25
2023-03-05T20:38:05.294Z,5.30
2023-03-05T20:40:32.886Z,4.82
2023-03-05T20:43:00.249Z,4.95
2023-03-05T20:45:28.176Z,5.35
2023-03-05T20:47:55.421Z,5.30
2023-03-05T20:50:23.462Z,5.15
2023-03-05T20:52:50.721Z,4.68
2023-03-05T20:55:18.041Z,3.78
2023-03-05T20:57:46.357Z,4.57
2023-03-05T21:00:14.398Z,5.10
2023-03-05T21:02:41.751Z,4.30
2023-03-05T21:05:09.388Z,5.25
2023-03-05T21:07:36.918Z,5.03
2023-03-05T21:10:04.640Z,4.22
2023-03-05T21:12:32.995Z,4.78
2023-03-05T21:15:01.151Z,6.65
2023-03-05T21:17:28.605Z,8.60
2023-03-05T21:19:56.423Z,7.93
2023-03-05T21:22:24.061Z,21.38
2023-03-05T21:25:15.584Z,34.35
2023-03-05T21:27:43.509Z,38.10
2023-03-05T21:30:11.523Z,37.10
2023-03-05T21:32:39.173Z,35.53
2023-03-05T21:35:07.117Z,33.58
2023-03-05T21:37:36.595Z,29.73
2023-03-05T21:40:04.888Z,29.40
2023-03-05T21:42:32.642Z,27.58
2023-03-05T21:44:59.857Z,26.23
2023-03-05T21:47:27.167Z,23.38
2023-03-05T21:49:54.511Z,25.58
2023-03-05T21:52:22.603Z,23.42
2023-03-05T21:54:49.906Z,23.08
2023-03-05T21:57:17.624Z,23.83
2023-03-05T21:59:45.277Z,22.27
2023-03-05T22:02:13.355Z,24.02
2023-03-05T22:04:40.800Z,21.65
2023-03-05T22:07:08.297Z,21.27
2023-03-05T22:09:35.959Z,21.00
2023-03-05T22:12:04.534Z,20.15
2023-03-05T22:14:32.436Z,21.08
2023-03-05T22:17:01.904Z,19.80
2023-03-05T22:19:30.234Z,20.45
2023-03-05T22:21:57.992Z,19.40
2023-03-05T22:24:25.732Z,20.05
2023-03-05T22:26:53.259Z,19.65
2023-03-05T22:29:21.235Z,18.90
2023-03-05T22:31:48.542Z,19.95
2023-03-05T22:34:16.029Z,20.92
2023-03-05T22:36:43.389Z,20.17
2023-03-05T22:39:10.718Z,20.23
2023-03-05T22:41:40.972Z,20.17
2023-03-05T22:44:08.842Z,20.85
2023-03-05T22:46:36.735Z,20.70
2023-03-05T22:49:03.960Z,21.08
2023-03-05T22:51:31.646Z,20.63
2023-03-05T22:53:59.105Z,20.23
2023-03-05T22:56:26.359Z,20.38
2023-03-05T22:58:54.199Z,19.30
2023-03-05T23:01:24.228Z,21.80
2023-03-05T23:03:58.353Z,19.38
2023-03-05T23:06:26.186Z,19.30
2023-03-05T23:08:53.614Z,21.17
2023-03-05T23:11:21.058Z,19.58
2023-03-05T23:13:48.615Z,14.13
2023-03-05T23:16:16.456Z,15.02
2023-03-05T23:18:43.870Z,13.93
2023-03-05T23:21:11.288Z,15.63
2023-03-05T23:23:39.053Z,14.68
2023-03-05T23:26:06.386Z,14.90
2023-03-05T23:28:33.834Z,16.15
2023-03-05T23:31:02.708Z,15.25
2023-03-05T23:33:30.038Z,15.80
2023-03-05T23:35:59.041Z,18.15
2023-03-05T23:38:27.761Z,18.77
2023-03-05T23:40:57.622Z,17.85
2023-03-05T23:43:26.746Z,18.02
2023-03-05T23:45:54.917Z,16.38
2023-03-05T23:48:23.168Z,16.23
2023-03-05T23:50:50.881Z,15.45
2023-03-05T23:53:23.259Z,15.48
2023-03-05T23:55:50.924Z,17.80
2023-03-05T23:58:20.321Z,24.75
